地図

経路データ

SID SEASON NUMBER BASIN SUBBASIN NAME ISO_TIME NATURE LAT LON WMO_WIND WMO_PRES WMO_AGENCY TRACK_TYPE DIST2LAND LANDFALL IFLAG USA_AGENCY USA_ATCF_ID USA_LAT USA_LON USA_RECORD USA_STATUS USA_WIND USA_PRES USA_SSHS USA_R34_NE USA_R34_SE USA_R34_SW USA_R34_NW USA_R50_NE USA_R50_SE USA_R50_SW USA_R50_NW USA_R64_NE USA_R64_SE USA_R64_SW USA_R64_NW USA_POCI USA_ROCI USA_RMW USA_EYE TOKYO_LAT TOKYO_LON TOKYO_GRADE TOKYO_WIND TOKYO_PRES TOKYO_R50_DIR TOKYO_R50_LONG TOKYO_R50_SHORT TOKYO_R30_DIR TOKYO_R30_LONG TOKYO_R30_SHORT TOKYO_LAND CMA_LAT CMA_LON CMA_CAT CMA_WIND CMA_PRES HKO_LAT HKO_LON HKO_CAT HKO_WIND HKO_PRES NEWDELHI_LAT NEWDELHI_LON NEWDELHI_GRADE NEWDELHI_WIND NEWDELHI_PRES NEWDELHI_CI NEWDELHI_DP NEWDELHI_POCI REUNION_LAT REUNION_LON REUNION_TYPE REUNION_WIND REUNION_PRES REUNION_TNUM REUNION_CI REUNION_RMW REUNION_R34_NE REUNION_R34_SE REUNION_R34_SW REUNION_R34_NW REUNION_R50_NE REUNION_R50_SE REUNION_R50_SW REUNION_R50_NW REUNION_R64_NE REUNION_R64_SE REUNION_R64_SW REUNION_R64_NW BOM_LAT BOM_LON BOM_TYPE BOM_WIND BOM_PRES BOM_TNUM BOM_CI BOM_RMW BOM_R34_NE BOM_R34_SE BOM_R34_SW BOM_R34_NW BOM_R50_NE BOM_R50_SE BOM_R50_SW BOM_R50_NW BOM_R64_NE BOM_R64_SE BOM_R64_SW BOM_R64_NW BOM_ROCI BOM_POCI BOM_EYE BOM_POS_METHOD BOM_PRES_METHOD NADI_LAT NADI_LON NADI_CAT NADI_WIND NADI_PRES WELLINGTON_LAT WELLINGTON_LON WELLINGTON_WIND WELLINGTON_PRES DS824_LAT DS824_LON DS824_STAGE DS824_WIND DS824_PRES TD9636_LAT TD9636_LON TD9636_STAGE TD9636_WIND TD9636_PRES TD9635_LAT TD9635_LON TD9635_WIND TD9635_PRES TD9635_ROCI NEUMANN_LAT NEUMANN_LON NEUMANN_CLASS NEUMANN_WIND NEUMANN_PRES MLC_LAT MLC_LON MLC_CLASS MLC_WIND MLC_PRES USA_GUST BOM_GUST BOM_GUST_PER REUNION_GUST REUNION_GUST_PER USA_SEAHGT USA_SEARAD_NE USA_SEARAD_SE USA_SEARAD_SW USA_SEARAD_NW STORM_SPEED STORM_DIR
1906251N17145 1906 32 WP MM NOT_NAMED 1906-09-07 16:00:00 NR 17.1000 145.300 main 2053 2025 __________O___ -1 17.1000 145.300 7 13 284
1906251N17145 1906 32 WP MM NOT_NAMED 1906-09-07 18:00:00 NR 17.2022 144.874 main 2025 1988 __________P___ -1 17.2022 144.874 7 12 284
1906251N17145 1906 32 WP MM NOT_NAMED 1906-09-07 21:00:00 NR 17.3475 144.251 main 1988 1943 __________P___ -1 17.3475 144.251 7 12 283
1906251N17145 1906 32 WP MM NOT_NAMED 1906-09-08 00:00:00 NR 17.4746 143.669 main 1943 1913 __________P___ -1 17.4746 143.669 7 11 282
1906251N17145 1906 32 WP MM NOT_NAMED 1906-09-08 03:00:00 NR 17.5744 143.153 main 1913 1905 __________P___ -1 17.5744 143.153 7 10 281
1906251N17145 1906 32 WP MM NOT_NAMED 1906-09-08 04:00:00 NR 17.6000 143.000 main 1905 1894 __________O___ -1 17.6000 143.000 7 8 279
1906251N17145 1906 32 WP MM NOT_NAMED 1906-09-08 06:00:00 NR 17.6388 142.726 main 1894 1873 __________P___ -1 17.6388 142.726 7 7 277
1906251N17145 1906 32 WP MM NOT_NAMED 1906-09-08 09:00:00 NR 17.6724 142.378 main 1873 1862 __________P___ -1 17.6724 142.378 7 6 275
1906251N17145 1906 32 WP MM NOT_NAMED 1906-09-08 12:00:00 NR 17.6875 142.079 main 1862 1853 __________P___ -1 17.6875 142.079 7 6 272
1906251N17145 1906 32 WP MM NOT_NAMED 1906-09-08 15:00:00 NR 17.6963 141.796 main 1853 1845 __________P___ -1 17.6963 141.796 7 5 272
1906251N17145 1906 32 WP MM NOT_NAMED 1906-09-08 16:00:00 NR 17.7000 141.700 main 1845 1825 __________O___ -1 17.7000 141.700 7 6 274
1906251N17145 1906 32 WP MM NOT_NAMED 1906-09-08 18:00:00 NR 17.7191 141.486 main 1825 1795 __________P___ -1 17.7191 141.486 7 6 275
1906251N17145 1906 32 WP MM NOT_NAMED 1906-09-08 21:00:00 NR 17.7480 141.165 main 1795 1758 __________P___ -1 17.7480 141.165 7 6 275
1906251N17145 1906 32 WP MM NOT_NAMED 1906-09-09 00:00:00 NR 17.7743 140.841 main 1758 1728 __________P___ -1 17.7743 140.841 7 6 274
1906251N17145 1906 32 WP MM NOT_NAMED 1906-09-09 03:00:00 NR 17.7949 140.512 main 1728 1718 __________P___ -1 17.7949 140.512 7 6 274
1906251N17145 1906 32 WP MM NOT_NAMED 1906-09-09 04:00:00 NR 17.8000 140.400 main 1718 1698 __________O___ -1 17.8000 140.400 7 6 272
1906251N17145 1906 32 WP MM NOT_NAMED 1906-09-09 06:00:00 NR 17.8055 140.178 main 1698 1658 __________P___ -1 17.8055 140.178 7 6 271
1906251N17145 1906 32 WP MM NOT_NAMED 1906-09-09 09:00:00 NR 17.8076 139.838 main 1658 1628 __________P___ -1 17.8076 139.838 7 7 270
1906251N17145 1906 32 WP MM NOT_NAMED 1906-09-09 12:00:00 NR 17.8051 139.488 main 1628 1589 __________P___ -1 17.8051 139.488 7 7 269
1906251N17145 1906 32 WP MM NOT_NAMED 1906-09-09 15:00:00 NR 17.8011 139.125 main 1589 1579 __________P___ -1 17.8011 139.125 7 7 269
1906251N17145 1906 32 WP MM NOT_NAMED 1906-09-09 16:00:00 NR 17.8000 139.000 main 1579 1559 __________O___ -1 17.8000 139.000 7 7 269
1906251N17145 1906 32 WP MM NOT_NAMED 1906-09-09 18:00:00 NR 17.7945 138.758 main 1559 1520 __________P___ -1 17.7945 138.758 7 7 269
1906251N17145 1906 32 WP MM NOT_NAMED 1906-09-09 21:00:00 NR 17.7862 138.382 main 1520 1481 __________P___ -1 17.7862 138.382 7 7 269
1906251N17145 1906 32 WP MM NOT_NAMED 1906-09-10 00:00:00 NR 17.7836 137.983 main 1481 1442 __________P___ -1 17.7836 137.983 7 8 271
1906251N17145 1906 32 WP MM NOT_NAMED 1906-09-10 03:00:00 NR 17.7931 137.552 main 1442 1423 __________P___ -1 17.7931 137.552 7 8 272
1906251N17145 1906 32 WP MM NOT_NAMED 1906-09-10 04:00:00 NR 17.8000 137.400 main 1423 1394 __________O___ -1 17.8000 137.400 7 9 273
1906251N17145 1906 32 WP MM NOT_NAMED 1906-09-10 06:00:00 NR 17.8194 137.073 main 1394 1351 __________P___ -1 17.8194 137.073 7 10 274
1906251N17145 1906 32 WP MM NOT_NAMED 1906-09-10 09:00:00 NR 17.8610 136.552 main 1351 1295 __________P___ -1 17.8610 136.552 7 10 275
1906251N17145 1906 32 WP MM NOT_NAMED 1906-09-10 12:00:00 NR 17.9147 136.011 main 1295 1254 __________P___ -1 17.9147 136.011 7 10 276
1906251N17145 1906 32 WP MM NOT_NAMED 1906-09-10 15:00:00 NR 17.9775 135.474 main 1254 1236 __________P___ -1 17.9775 135.474 7 10 277
1906251N17145 1906 32 WP MM NOT_NAMED 1906-09-10 16:00:00 NR 18.0000 135.300 main 1236 1208 __________O___ -1 18.0000 135.300 7 10 278
1906251N17145 1906 32 WP MM NOT_NAMED 1906-09-10 18:00:00 NR 18.0466 134.969 main 1208 1170 __________P___ -1 18.0466 134.969 7 9 279
1906251N17145 1906 32 WP MM NOT_NAMED 1906-09-10 21:00:00 NR 18.1231 134.486 main 1170 1132 __________P___ -1 18.1231 134.486 7 9 280
1906251N17145 1906 32 WP MM NOT_NAMED 1906-09-11 00:00:00 NR 18.2020 134.015 main 1132 1099 __________P___ -1 18.2020 134.015 7 9 280
1906251N17145 1906 32 WP MM NOT_NAMED 1906-09-11 03:00:00 NR 18.2770 133.553 main 1099 1080 __________P___ -1 18.2770 133.553 7 9 280
1906251N17145 1906 32 WP MM NOT_NAMED 1906-09-11 04:00:00 NR 18.3000 133.400 main 1080 1051 __________O___ -1 18.3000 133.400 7 9 278
1906251N17145 1906 32 WP MM NOT_NAMED 1906-09-11 06:00:00 NR 18.3387 133.094 main 1051 1010 __________P___ -1 18.3387 133.094 7 9 277
1906251N17145 1906 32 WP MM NOT_NAMED 1906-09-11 09:00:00 NR 18.3908 132.642 main 1010 973 __________P___ -1 18.3908 132.642 7 9 277
1906251N17145 1906 32 WP MM NOT_NAMED 1906-09-11 12:00:00 NR 18.4383 132.194 main 973 934 __________P___ -1 18.4383 132.194 7 9 276
1906251N17145 1906 32 WP MM NOT_NAMED 1906-09-11 15:00:00 NR 18.4844 131.749 main 934 925 __________P___ -1 18.4844 131.749 7 9 276
1906251N17145 1906 32 WP MM NOT_NAMED 1906-09-11 16:00:00 NR 18.5000 131.600 main 925 898 __________O___ -1 18.5000 131.600 7 9 276
1906251N17145 1906 32 WP MM NOT_NAMED 1906-09-11 18:00:00 NR 18.5333 131.290 main 898 862 __________P___ -1 18.5333 131.290 7 9 276
1906251N17145 1906 32 WP MM NOT_NAMED 1906-09-11 21:00:00 NR 18.5833 130.824 main 862 828 __________P___ -1 18.5833 130.824 7 9 277
1906251N17145 1906 32 WP MM NOT_NAMED 1906-09-12 00:00:00 NR 18.6333 130.368 main 828 795 __________P___ -1 18.6333 130.368 7 8 277
1906251N17145 1906 32 WP MM NOT_NAMED 1906-09-12 03:00:00 NR 18.6833 129.937 main 795 787 __________P___ -1 18.6833 129.937 7 8 277
1906251N17145 1906 32 WP MM NOT_NAMED 1906-09-12 04:00:00 NR 18.7000 129.800 main 787 759 __________O___ -1 18.7000 129.800 7 8 277
1906251N17145 1906 32 WP MM NOT_NAMED 1906-09-12 06:00:00 NR 18.7304 129.538 main 759 728 __________P___ -1 18.7304 129.538 7 7 277
1906251N17145 1906 32 WP MM NOT_NAMED 1906-09-12 09:00:00 NR 18.7762 129.171 main 728 686 __________P___ -1 18.7762 129.171 7 7 278
1906251N17145 1906 32 WP MM NOT_NAMED 1906-09-12 12:00:00 NR 18.8251 128.829 main 686 655 __________P___ -1 18.8251 128.829 7 6 279
1906251N17145 1906 32 WP MM NOT_NAMED 1906-09-12 15:00:00 NR 18.8799 128.505 main 655 645 __________P___ -1 18.8799 128.505 7 6 280
1906251N17145 1906 32 WP MM NOT_NAMED 1906-09-12 16:00:00 NR 18.9000 128.400 main 645 624 __________O___ -1 18.9000 128.400 7 6 282
1906251N17145 1906 32 WP MM NOT_NAMED 1906-09-12 18:00:00 NR 18.9467 128.186 main 624 593 __________P___ -1 18.9467 128.186 7 6 284
1906251N17145 1906 32 WP MM NOT_NAMED 1906-09-12 21:00:00 NR 19.0234 127.878 main 593 563 __________P___ -1 19.0234 127.878 7 6 285
1906251N17145 1906 32 WP MM NOT_NAMED 1906-09-13 00:00:00 NR 19.1022 127.581 main 563 533 __________P___ -1 19.1022 127.581 7 6 286
1906251N17145 1906 32 WP MM NOT_NAMED 1906-09-13 03:00:00 NR 19.1771 127.294 main 533 523 __________P___ -1 19.1771 127.294 7 6 285
1906251N17145 1906 32 WP MM NOT_NAMED 1906-09-13 04:00:00 NR 19.2000 127.200 main 523 502 __________O___ -1 19.2000 127.200 7 5 282
1906251N17145 1906 32 WP MM NOT_NAMED 1906-09-13 06:00:00 NR 19.2363 127.011 main 502 473 __________P___ -1 19.2363 127.011 7 5 281
1906251N17145 1906 32 WP MM NOT_NAMED 1906-09-13 09:00:00 NR 19.2845 126.733 main 473 453 __________P___ -1 19.2845 126.733 7 5 280
1906251N17145 1906 32 WP MM NOT_NAMED 1906-09-13 12:00:00 NR 19.3307 126.461 main 453 425 __________P___ -1 19.3307 126.461 7 5 281
1906251N17145 1906 32 WP MM NOT_NAMED 1906-09-13 15:00:00 NR 19.3811 126.190 main 425 415 __________P___ -1 19.3811 126.190 7 5 282
1906251N17145 1906 32 WP MM NOT_NAMED 1906-09-13 16:00:00 NR 19.4000 126.100 main 415 394 __________O___ -1 19.4000 126.100 7 5 283
1906251N17145 1906 32 WP MM NOT_NAMED 1906-09-13 18:00:00 NR 19.4389 125.922 main 394 378 __________P___ -1 19.4389 125.922 7 5 284
1906251N17145 1906 32 WP MM NOT_NAMED 1906-09-13 21:00:00 NR 19.5035 125.655 main 378 352 __________P___ -1 19.5035 125.655 7 5 285
1906251N17145 1906 32 WP MM NOT_NAMED 1906-09-14 00:00:00 NR 19.5785 125.382 main 352 328 __________P___ -1 19.5785 125.382 7 5 287
1906251N17145 1906 32 WP MM NOT_NAMED 1906-09-14 03:00:00 NR 19.6670 125.098 main 328 318 __________P___ -1 19.6670 125.098 7 6 289
1906251N17145 1906 32 WP MM NOT_NAMED 1906-09-14 04:00:00 NR 19.7000 125.000 main 318 305 __________O___ -1 19.7000 125.000 7 6 291
1906251N17145 1906 32 WP MM NOT_NAMED 1906-09-14 06:00:00 NR 19.7798 124.792 main 305 285 __________P___ -1 19.7798 124.792 7 7 293
1906251N17145 1906 32 WP MM NOT_NAMED 1906-09-14 09:00:00 NR 19.9122 124.468 main 285 260 __________P___ -1 19.9122 124.468 7 7 293
1906251N17145 1906 32 WP MM NOT_NAMED 1906-09-14 12:00:00 NR 20.0462 124.137 main 260 253 __________P___ -1 20.0462 124.137 7 7 292
1906251N17145 1906 32 WP MM NOT_NAMED 1906-09-14 15:00:00 NR 20.1659 123.808 main 255 249 __________P___ -1 20.1659 123.808 7 7 291
1906251N17145 1906 32 WP MM NOT_NAMED 1906-09-14 16:00:00 NR 20.2000 123.700 main 249 237 __________O___ -1 20.2000 123.700 7 6 286
1906251N17145 1906 32 WP MM NOT_NAMED 1906-09-14 18:00:00 NR 20.2476 123.497 main 237 232 __________P___ -1 20.2476 123.497 7 6 282
1906251N17145 1906 32 WP MM NOT_NAMED 1906-09-14 21:00:00 NR 20.3003 123.198 main 232 221 __________P___ -1 20.3003 123.198 7 6 280
1906251N17145 1906 32 WP MM NOT_NAMED 1906-09-15 00:00:00 NR 20.3414 122.902 main 221 221 __________P___ -1 20.3414 122.902 7 6 278
1906251N17145 1906 32 WP MM NOT_NAMED 1906-09-15 03:00:00 NR 20.3836 122.602 main 225 224 __________P___ -1 20.3836 122.602 7 6 279
1906251N17145 1906 32 WP MM NOT_NAMED 1906-09-15 04:00:00 NR 20.4000 122.500 main 224 213 __________O___ -1 20.4000 122.500 7 6 283
1906251N17145 1906 32 WP MM NOT_NAMED 1906-09-15 06:00:00 NR 20.4521 122.287 main 213 193 __________P___ -1 20.4521 122.287 7 6 285
1906251N17145 1906 32 WP MM NOT_NAMED 1906-09-15 09:00:00 NR 20.5368 121.960 main 193 162 __________P___ -1 20.5368 121.960 7 6 285
1906251N17145 1906 32 WP MM NOT_NAMED 1906-09-15 12:00:00 NR 20.6182 121.631 main 162 140 __________P___ -1 20.6182 121.631 7 6 284
1906251N17145 1906 32 WP MM NOT_NAMED 1906-09-15 15:00:00 NR 20.6838 121.306 main 140 137 __________P___ -1 20.6838 121.306 7 6 281
1906251N17145 1906 32 WP MM NOT_NAMED 1906-09-15 16:00:00 NR 20.7000 121.200 main 137 134 __________O___ -1 20.7000 121.200 7 6 273
1906251N17145 1906 32 WP MM NOT_NAMED 1906-09-15 18:00:00 NR 20.7013 120.989 main 134 134 __________P___ -1 20.7013 120.989 7 6 268
1906251N17145 1906 32 WP MM NOT_NAMED 1906-09-15 21:00:00 NR 20.6841 120.678 main 134 134 __________P___ -1 20.6841 120.678 7 6 267
1906251N17145 1906 32 WP MM NOT_NAMED 1906-09-16 00:00:00 NR 20.6688 120.378 main 137 137 __________P___ -1 20.6688 120.378 7 5 270
1906251N17145 1906 32 WP MM NOT_NAMED 1906-09-16 03:00:00 NR 20.6835 120.092 main 147 147 __________P___ -1 20.6835 120.092 7 5 275
1906251N17145 1906 32 WP MM NOT_NAMED 1906-09-16 04:00:00 NR 20.7000 120.000 main 152 152 __________O___ -1 20.7000 120.000 7 5 288
1906251N17145 1906 32 WP MM NOT_NAMED 1906-09-16 06:00:00 NR 20.7682 119.819 main 154 154 __________P___ -1 20.7682 119.819 7 6 297
1906251N17145 1906 32 WP MM NOT_NAMED 1906-09-16 09:00:00 NR 20.9086 119.561 main 159 159 __________P___ -1 20.9086 119.561 7 6 303
1906251N17145 1906 32 WP MM NOT_NAMED 1906-09-16 12:00:00 NR 21.0751 119.315 main 170 170 __________P___ -1 21.0751 119.315 7 6 307
1906251N17145 1906 32 WP MM NOT_NAMED 1906-09-16 15:00:00 NR 21.2459 119.078 main 183 178 __________P___ -1 21.2459 119.078 7 6 308
1906251N17145 1906 32 WP MM NOT_NAMED 1906-09-16 16:00:00 NR 21.3000 119.000 main 188 188 __________O___ -1 21.3000 119.000 7 5 308
1906251N17145 1906 32 WP MM NOT_NAMED 1906-09-16 18:00:00 NR 21.3938 118.876 main 189 189 __________P___ -1 21.3938 118.876 7 4 309
1906251N17145 1906 32 WP MM NOT_NAMED 1906-09-16 21:00:00 NR 21.5284 118.696 main 199 193 __________P___ -1 21.5284 118.696 7 4 306
1906251N17145 1906 32 WP MM NOT_NAMED 1906-09-17 00:00:00 NR 21.6534 118.489 main 205 205 __________P___ -1 21.6534 118.489 7 5 298
1906251N17145 1906 32 WP MM NOT_NAMED 1906-09-17 03:00:00 NR 21.7658 118.214 main 213 205 __________P___ -1 21.7658 118.214 7 6 292
1906251N17145 1906 32 WP MM NOT_NAMED 1906-09-17 04:00:00 NR 21.8000 118.100 main 205 174 __________O___ -1 21.8000 118.100 3 7 285
1906251N17145 1906 32 WP MM NOT_NAMED 1906-09-17 06:00:00 NR 21.8642 117.826 main 174 138 __________P___ -1 21.8642 117.826 3 9 282
1906251N17145 1906 32 WP MM NOT_NAMED 1906-09-17 09:00:00 NR 21.9478 117.340 main 138 105 __________P___ -1 21.9478 117.340 3 10 279
1906251N17145 1906 32 WP MM NOT_NAMED 1906-09-17 12:00:00 NR 22.0189 116.789 main 105 78 __________P___ -1 22.0189 116.789 3 11 277
1906251N17145 1906 32 WP MM NOT_NAMED 1906-09-17 15:00:00 NR 22.0808 116.200 main 78 70 __________P___ -1 22.0808 116.200 3 11 276
1906251N17145 1906 32 WP MM NOT_NAMED 1906-09-17 16:00:00 NR 22.1000 116.000 main 70 67 __________O___ -1 22.1000 116.000 4 11 276
1906251N17145 1906 32 WP MM NOT_NAMED 1906-09-17 18:00:00 NR 22.1371 115.600 main 67 35 __________P___ -1 22.1371 115.600 4 11 276
1906251N17145 1906 32 WP MM NOT_NAMED 1906-09-17 21:00:00 NR 22.1896 115.000 main 35 15 __________P___ -1 22.1896 115.000 4 11 275
1906251N17145 1906 32 WP MM NOT_NAMED 1906-09-18 00:00:00 NR 22.2387 114.400 main 15 10 __________P___ -1 22.2387 114.400 4 11 275
1906251N17145 1906 32 WP MM NOT_NAMED 1906-09-18 03:00:00 NR 22.2851 113.800 main 15 10 __________P___ -1 22.2851 113.800 4 11 275
1906251N17145 1906 32 WP MM NOT_NAMED 1906-09-18 04:00:00 NR 22.3000 113.600 main 10 __________O___ -1 22.3000 113.600 4 11 275

デジタル台風データ・検索

IBTrACS Databaseについて

本データベースは、米国NOAAが公開する1842年以降の世界の熱帯低気圧のベストトラックデータアーカイブInternational Best Track Archive for Climate Stewardship (IBTrACS)を、ウェブで閲覧しやすい形式に変換したものです。

最終更新日:2021-11-26